createdAt,value
2018-07-10T00:00:35.076Z,0.00
2018-07-10T00:01:35.040Z,0.00
2018-07-10T00:02:35.018Z,0.00
2018-07-10T00:03:35.001Z,0.00
2018-07-10T00:04:34.963Z,0.00
2018-07-10T00:05:34.941Z,0.00
2018-07-10T00:06:34.915Z,0.00
2018-07-10T00:07:34.887Z,0.00
2018-07-10T00:08:34.860Z,0.00
2018-07-10T00:09:34.837Z,0.00
2018-07-10T00:10:34.808Z,0.00
2018-07-10T00:11:34.781Z,0.00
2018-07-10T00:12:34.751Z,0.00
2018-07-10T00:13:34.727Z,0.00
2018-07-10T00:14:34.704Z,0.00
2018-07-10T00:15:34.670Z,0.00
2018-07-10T00:16:34.639Z,0.00
2018-07-10T00:17:34.617Z,0.00
2018-07-10T00:18:35.204Z,0.00
2018-07-10T00:19:34.567Z,0.00
2018-07-10T00:20:34.540Z,0.00
2018-07-10T00:21:34.515Z,0.00
2018-07-10T00:22:34.481Z,0.00
2018-07-10T00:23:34.457Z,0.00
2018-07-10T00:24:34.429Z,0.00
2018-07-10T00:25:34.406Z,0.00
2018-07-10T00:26:34.378Z,0.00
2018-07-10T00:27:34.351Z,0.00
2018-07-10T00:28:34.322Z,0.00
2018-07-10T00:29:34.296Z,0.00
2018-07-10T00:30:34.271Z,0.00
2018-07-10T00:31:34.244Z,0.00
2018-07-10T00:32:34.222Z,0.00
2018-07-10T00:33:34.188Z,0.00
2018-07-10T00:34:34.163Z,0.00
2018-07-10T00:35:34.137Z,0.00
2018-07-10T00:36:34.114Z,0.00
2018-07-10T00:37:34.084Z,0.00
2018-07-10T00:38:34.055Z,0.00
2018-07-10T00:39:34.030Z,0.00
2018-07-10T00:40:34.004Z,0.00
2018-07-10T00:41:33.980Z,0.00
2018-07-10T00:42:33.947Z,0.00
2018-07-10T00:43:33.919Z,0.00
2018-07-10T00:44:33.894Z,0.00
2018-07-10T00:45:33.866Z,0.00
2018-07-10T00:46:33.840Z,0.00
2018-07-10T00:47:33.811Z,0.00
2018-07-10T00:48:33.803Z,0.00
2018-07-10T00:49:33.758Z,0.00
2018-07-10T00:50:33.734Z,0.00
2018-07-10T00:51:33.707Z,0.00
2018-07-10T00:52:33.672Z,0.00
2018-07-10T00:53:33.656Z,0.00
2018-07-10T00:54:33.622Z,0.00
2018-07-10T00:55:33.600Z,0.00
2018-07-10T00:56:33.569Z,0.00
2018-07-10T00:57:33.545Z,0.00
2018-07-10T00:58:33.521Z,0.00
2018-07-10T00:59:33.492Z,0.00
2018-07-10T01:00:33.463Z,0.00
2018-07-10T01:01:33.435Z,0.00
2018-07-10T01:02:33.410Z,0.00
2018-07-10T01:03:33.381Z,0.00
2018-07-10T01:04:33.350Z,0.00
2018-07-10T01:05:33.332Z,0.00
2018-07-10T01:06:33.302Z,0.00
2018-07-10T01:07:33.274Z,0.00
2018-07-10T01:08:33.252Z,0.00
2018-07-10T01:09:33.223Z,0.00
2018-07-10T01:10:33.195Z,0.00
2018-07-10T01:11:33.169Z,0.00
2018-07-10T01:12:33.144Z,0.00
2018-07-10T01:13:33.117Z,0.00
2018-07-10T01:14:33.090Z,0.00
2018-07-10T01:15:33.060Z,0.00
2018-07-10T01:16:33.039Z,0.00
2018-07-10T01:17:33.012Z,0.00
2018-07-10T01:18:32.981Z,0.00
2018-07-10T01:19:32.954Z,0.00
2018-07-10T01:20:32.938Z,0.00
2018-07-10T01:21:32.901Z,0.00
2018-07-10T01:22:32.874Z,0.00
2018-07-10T01:23:32.848Z,0.00
2018-07-10T01:24:32.817Z,0.00
2018-07-10T01:25:32.794Z,0.00
2018-07-10T01:26:32.767Z,0.00
2018-07-10T01:27:32.741Z,0.00
2018-07-10T01:28:32.710Z,0.00
2018-07-10T01:29:32.686Z,0.00
2018-07-10T01:30:32.659Z,0.00
2018-07-10T01:31:32.630Z,0.00
2018-07-10T01:32:32.606Z,0.00
2018-07-10T01:33:32.578Z,0.00
2018-07-10T01:34:32.553Z,0.00
2018-07-10T01:35:32.552Z,0.00
2018-07-10T01:36:32.499Z,0.00
2018-07-10T01:37:32.471Z,0.00
2018-07-10T01:38:32.460Z,0.00
2018-07-10T01:39:32.422Z,0.00
2018-07-10T01:40:32.399Z,0.00
2018-07-10T01:41:32.362Z,0.00
2018-07-10T01:42:32.334Z,0.00
2018-07-10T01:43:32.308Z,0.00
2018-07-10T01:44:32.281Z,0.00
2018-07-10T01:45:32.253Z,0.00
2018-07-10T01:46:32.226Z,0.00
2018-07-10T01:47:32.200Z,0.00
2018-07-10T01:48:32.178Z,0.00
2018-07-10T01:49:32.151Z,0.00
2018-07-10T01:50:32.129Z,0.00
2018-07-10T01:51:32.096Z,0.00
2018-07-10T01:52:32.070Z,0.00
2018-07-10T01:53:32.039Z,0.00
2018-07-10T01:54:32.010Z,0.00
2018-07-10T01:55:31.995Z,0.00
2018-07-10T01:56:32.038Z,0.00
2018-07-10T01:57:31.935Z,0.00
2018-07-10T01:58:31.908Z,0.00
2018-07-10T01:59:31.891Z,0.00
2018-07-10T02:00:31.855Z,0.00
2018-07-10T02:01:31.825Z,0.00
2018-07-10T02:02:31.818Z,0.00
2018-07-10T02:03:31.772Z,0.00
2018-07-10T02:04:31.744Z,0.00
2018-07-10T02:05:31.726Z,0.00
2018-07-10T02:06:31.690Z,0.00
2018-07-10T02:07:31.664Z,0.00
2018-07-10T02:08:31.648Z,0.00
2018-07-10T02:09:31.613Z,0.00
2018-07-10T02:10:31.592Z,0.00
2018-07-10T02:11:31.564Z,0.00
2018-07-10T02:12:31.535Z,0.00
2018-07-10T02:13:31.501Z,0.00
2018-07-10T02:14:31.496Z,0.00
2018-07-10T02:15:31.449Z,0.00
2018-07-10T02:16:31.433Z,0.00
2018-07-10T02:17:31.413Z,0.00
2018-07-10T02:18:31.371Z,0.00
2018-07-10T02:19:31.342Z,0.00
2018-07-10T02:20:31.325Z,0.00
2018-07-10T02:21:31.288Z,0.00
2018-07-10T02:22:31.262Z,0.00
2018-07-10T02:23:31.243Z,0.00
2018-07-10T02:24:31.215Z,0.00
2018-07-10T02:25:31.179Z,0.00
2018-07-10T02:26:31.170Z,0.00
2018-07-10T02:27:31.126Z,0.00
2018-07-10T02:28:31.097Z,0.00
2018-07-10T02:29:31.078Z,0.00
2018-07-10T02:30:31.041Z,0.00
2018-07-10T02:31:31.048Z,0.00
2018-07-10T02:32:31.002Z,0.00
2018-07-10T02:33:30.963Z,0.00
2018-07-10T02:34:30.931Z,0.00
2018-07-10T02:35:30.920Z,0.00
2018-07-10T02:36:30.885Z,0.00
2018-07-10T02:37:30.859Z,0.00
2018-07-10T02:38:30.828Z,0.00
2018-07-10T02:39:30.799Z,0.00
2018-07-10T02:40:30.777Z,0.00
2018-07-10T02:41:30.748Z,0.00
2018-07-10T02:42:30.720Z,0.00
2018-07-10T02:43:30.703Z,0.00
2018-07-10T02:44:30.668Z,0.00
2018-07-10T02:45:30.643Z,0.00
2018-07-10T02:46:30.628Z,0.00
2018-07-10T02:47:30.586Z,0.00
2018-07-10T02:48:30.562Z,0.00
2018-07-10T02:49:30.533Z,0.00
2018-07-10T02:50:30.521Z,0.00
2018-07-10T02:51:30.476Z,0.00
2018-07-10T02:52:30.452Z,0.00
2018-07-10T02:53:30.425Z,0.00
2018-07-10T02:54:30.399Z,0.00
2018-07-10T02:55:30.368Z,0.00
2018-07-10T02:56:30.350Z,0.00
2018-07-10T02:57:30.320Z,0.00
2018-07-10T02:58:30.291Z,0.00
2018-07-10T02:59:30.278Z,0.00
2018-07-10T03:00:30.237Z,0.00
2018-07-10T03:01:30.219Z,0.00
2018-07-10T03:02:30.205Z,0.00
2018-07-10T03:03:30.153Z,0.00
2018-07-10T03:04:30.126Z,0.00
2018-07-10T03:05:30.104Z,0.00
2018-07-10T03:06:30.076Z,5.63
2018-07-10T03:07:30.043Z,5.63
2018-07-10T03:08:30.034Z,5.63
2018-07-10T03:09:29.995Z,5.63
2018-07-10T03:10:29.980Z,5.63
2018-07-10T03:11:29.953Z,5.63
2018-07-10T03:12:29.911Z,5.63
2018-07-10T03:13:29.881Z,5.63
2018-07-10T03:14:29.859Z,5.63
2018-07-10T03:15:29.837Z,5.63
2018-07-10T03:16:29.805Z,5.63
2018-07-10T03:17:29.793Z,5.63
2018-07-10T03:18:29.756Z,5.63
2018-07-10T03:19:29.725Z,5.63
2018-07-10T03:20:29.706Z,5.63
2018-07-10T03:21:29.673Z,11.25
2018-07-10T03:22:29.643Z,11.25
2018-07-10T03:23:29.629Z,11.25
2018-07-10T03:24:29.592Z,11.25
2018-07-10T03:25:29.556Z,11.25
2018-07-10T03:26:29.551Z,11.25
2018-07-10T03:27:29.508Z,11.25
2018-07-10T03:28:29.481Z,11.25
2018-07-10T03:29:29.471Z,16.88
2018-07-10T03:30:29.429Z,16.88
2018-07-10T03:31:29.402Z,16.88
2018-07-10T03:32:29.374Z,16.88
2018-07-10T03:33:29.347Z,16.88
2018-07-10T03:34:29.318Z,16.88
2018-07-10T03:35:29.303Z,16.88
2018-07-10T03:36:29.339Z,16.88
2018-07-10T03:37:29.241Z,22.50
2018-07-10T03:38:29.221Z,22.50
2018-07-10T03:39:29.184Z,22.50
2018-07-10T03:40:29.156Z,22.50
2018-07-10T03:41:29.148Z,22.50
2018-07-10T03:42:29.103Z,22.50
2018-07-10T03:43:29.077Z,28.13
2018-07-10T03:44:29.054Z,28.13
2018-07-10T03:45:29.025Z,28.13
2018-07-10T03:46:29.004Z,28.13
2018-07-10T03:47:28.977Z,28.13
2018-07-10T03:48:28.946Z,28.13
2018-07-10T03:49:28.913Z,33.75
2018-07-10T03:50:28.895Z,33.75
2018-07-10T03:51:28.865Z,33.75
2018-07-10T03:52:28.837Z,33.75
2018-07-10T03:53:28.808Z,33.75
2018-07-10T03:54:28.783Z,33.75
2018-07-10T03:55:28.774Z,33.75
2018-07-10T03:56:28.733Z,33.75
2018-07-10T03:57:28.702Z,39.38
2018-07-10T03:58:28.672Z,39.38
2018-07-10T03:59:28.655Z,39.38
2018-07-10T04:00:28.621Z,39.38
2018-07-10T04:01:28.596Z,39.38
2018-07-10T04:02:28.574Z,39.38
2018-07-10T04:03:28.539Z,39.38
2018-07-10T04:04:28.514Z,39.38
2018-07-10T04:05:28.498Z,45.00
2018-07-10T04:06:28.456Z,45.00
2018-07-10T04:07:28.432Z,45.00
2018-07-10T04:08:28.408Z,45.00
2018-07-10T04:09:28.381Z,45.00
2018-07-10T04:10:28.370Z,45.00
2018-07-10T04:11:28.335Z,50.63
2018-07-10T04:12:28.300Z,50.63
2018-07-10T04:13:28.282Z,50.63
2018-07-10T04:14:28.244Z,50.63
2018-07-10T04:15:28.220Z,50.63
2018-07-10T04:16:28.193Z,56.25
2018-07-10T04:17:28.174Z,56.25
2018-07-10T04:18:28.141Z,56.25
2018-07-10T04:19:28.109Z,56.25
2018-07-10T04:20:28.090Z,56.25
2018-07-10T04:21:28.056Z,56.25
2018-07-10T04:22:28.031Z,61.88
2018-07-10T04:23:28.017Z,61.88
2018-07-10T04:24:27.976Z,61.88
2018-07-10T04:25:27.947Z,61.88
2018-07-10T04:26:27.928Z,61.88
2018-07-10T04:27:27.898Z,67.50
2018-07-10T04:28:27.869Z,67.50
2018-07-10T04:29:27.848Z,67.50
2018-07-10T04:30:27.814Z,73.13
2018-07-10T04:31:27.808Z,73.13
2018-07-10T04:32:27.770Z,73.13
2018-07-10T04:33:27.734Z,73.13
2018-07-10T04:34:27.707Z,78.75
2018-07-10T04:35:27.689Z,78.75
2018-07-10T04:36:27.658Z,84.38
2018-07-10T04:37:27.631Z,84.38
2018-07-10T04:38:27.649Z,90.00
2018-07-10T04:39:27.574Z,90.00
2018-07-10T04:40:27.552Z,90.00
2018-07-10T04:41:27.525Z,95.63
2018-07-10T04:42:27.512Z,95.63
2018-07-10T04:43:27.471Z,95.63
2018-07-10T04:44:27.443Z,95.63
2018-07-10T04:45:27.416Z,101.25
2018-07-10T04:46:27.398Z,101.25
2018-07-10T04:47:27.370Z,101.25
2018-07-10T04:48:27.340Z,101.25
2018-07-10T04:49:27.397Z,101.25
2018-07-10T04:50:27.297Z,106.88
2018-07-10T04:51:27.267Z,106.88
2018-07-10T04:52:27.238Z,106.88
2018-07-10T04:53:27.202Z,106.88
2018-07-10T04:54:27.176Z,112.50
2018-07-10T04:55:27.197Z,112.50
2018-07-10T04:56:27.132Z,112.50
2018-07-10T04:57:27.098Z,112.50
2018-07-10T04:58:27.079Z,112.50
2018-07-10T04:59:27.043Z,112.50
2018-07-10T05:00:27.020Z,118.13
2018-07-10T05:01:36.330Z,118.13
2018-07-10T05:03:21.092Z,118.13
2018-07-10T05:04:20.629Z,123.75
2018-07-10T05:06:14.135Z,123.75
2018-07-10T05:09:07.236Z,129.38
2018-07-10T05:10:07.257Z,129.38
2018-07-10T05:12:00.385Z,129.38
2018-07-10T05:13:00.267Z,129.38
2018-07-10T05:14:53.900Z,140.63
2018-07-10T05:15:53.892Z,146.25
2018-07-10T05:17:47.666Z,157.50
2018-07-10T05:18:47.585Z,174.38
2018-07-10T05:20:41.824Z,196.88
2018-07-10T05:21:43.353Z,185.63
2018-07-10T05:22:41.724Z,180.00
2018-07-10T05:23:41.802Z,180.00
2018-07-10T05:24:41.740Z,185.63
2018-07-10T05:25:41.769Z,191.25
2018-07-10T05:26:41.663Z,191.25
2018-07-10T05:27:41.613Z,196.88
2018-07-10T05:28:41.734Z,202.50
2018-07-10T05:29:41.583Z,208.13
2018-07-10T05:30:41.467Z,213.75
2018-07-10T05:31:41.559Z,225.00
2018-07-10T05:32:41.593Z,225.00
2018-07-10T05:33:42.483Z,230.63
2018-07-10T05:34:41.411Z,236.25
2018-07-10T05:35:41.452Z,241.88
2018-07-10T05:36:41.346Z,247.50
2018-07-10T05:37:41.349Z,247.50
2018-07-10T05:38:42.948Z,247.50
2018-07-10T05:39:41.362Z,247.50
2018-07-10T05:40:42.011Z,247.50
2018-07-10T05:41:44.916Z,253.13
2018-07-10T05:42:41.318Z,247.50
2018-07-10T05:43:41.148Z,253.13
2018-07-10T05:44:41.192Z,247.50
2018-07-10T05:45:41.128Z,241.88
2018-07-10T05:46:41.119Z,236.25
2018-07-10T05:47:41.031Z,236.25
2018-07-10T05:48:42.866Z,230.63
2018-07-10T05:49:41.231Z,241.88
2018-07-10T05:50:40.987Z,219.38
2018-07-10T05:51:41.194Z,219.38
2018-07-10T05:52:41.053Z,208.13
2018-07-10T05:53:42.057Z,196.88
2018-07-10T05:54:41.073Z,196.88
2018-07-10T05:55:41.039Z,202.50
2018-07-10T05:56:43.062Z,196.88
2018-07-10T05:57:40.817Z,180.00
2018-07-10T05:58:40.845Z,185.63
2018-07-10T05:59:40.838Z,180.00
2018-07-10T06:00:40.776Z,180.00
2018-07-10T06:01:42.418Z,225.00
2018-07-10T06:02:42.394Z,219.38
2018-07-10T06:03:40.659Z,174.38
2018-07-10T06:04:42.504Z,185.63
2018-07-10T06:05:42.430Z,180.00
2018-07-10T06:06:40.710Z,180.00
2018-07-10T06:07:42.364Z,185.63
2018-07-10T06:08:40.658Z,196.88
2018-07-10T06:09:42.409Z,196.88
2018-07-10T06:10:40.493Z,202.50
2018-07-10T06:11:40.584Z,208.13
2018-07-10T06:12:40.600Z,208.13
2018-07-10T06:13:40.428Z,213.75
2018-07-10T06:14:41.520Z,219.38
2018-07-10T06:15:40.359Z,225.00
2018-07-10T06:16:40.390Z,225.00
2018-07-10T06:17:40.370Z,225.00
2018-07-10T06:18:41.035Z,225.00
2018-07-10T06:19:40.382Z,225.00
2018-07-10T06:20:40.331Z,225.00
2018-07-10T06:21:40.214Z,219.38
2018-07-10T06:22:40.259Z,219.38
2018-07-10T06:23:40.291Z,219.38
2018-07-10T06:24:41.944Z,219.38
2018-07-10T06:25:40.134Z,225.00
2018-07-10T06:26:40.171Z,320.63
2018-07-10T06:27:40.034Z,275.63
2018-07-10T06:28:40.095Z,337.50
2018-07-10T06:29:40.016Z,337.50
2018-07-10T06:30:41.870Z,253.13
2018-07-10T06:31:39.945Z,371.25
2018-07-10T06:32:40.008Z,365.63
2018-07-10T06:33:39.972Z,360.00
2018-07-10T06:34:41.909Z,360.00
2018-07-10T06:35:39.918Z,360.00
2018-07-10T06:36:39.825Z,360.00
2018-07-10T06:37:39.815Z,365.63
2018-07-10T06:38:39.784Z,365.63
2018-07-10T06:39:39.859Z,348.75
2018-07-10T06:40:41.396Z,360.00
2018-07-10T06:41:39.736Z,360.00
2018-07-10T06:42:39.766Z,360.00
2018-07-10T06:43:39.747Z,360.00
2018-07-10T06:44:39.664Z,360.00
2018-07-10T06:45:40.711Z,354.38
2018-07-10T06:46:39.642Z,360.00
2018-07-10T06:47:39.638Z,360.00
2018-07-10T06:48:39.598Z,354.38
2018-07-10T06:49:41.372Z,354.38
2018-07-10T06:50:39.554Z,360.00
2018-07-10T06:51:39.588Z,354.38
2018-07-10T06:52:41.622Z,360.00
2018-07-10T06:53:39.606Z,360.00
2018-07-10T06:55:39.454Z,360.00
2018-07-10T06:56:39.474Z,286.88
2018-07-10T06:57:40.961Z,326.25
2018-07-10T06:58:39.295Z,360.00
2018-07-10T06:59:39.238Z,360.00
2018-07-10T07:00:39.282Z,360.00
2018-07-10T07:01:39.258Z,365.63
2018-07-10T07:02:40.860Z,371.25
2018-07-10T07:03:39.249Z,371.25
2018-07-10T07:04:39.145Z,376.88
2018-07-10T07:05:39.131Z,382.50
2018-07-10T07:06:39.058Z,382.50
2018-07-10T07:07:39.107Z,382.50
2018-07-10T07:08:39.109Z,382.50
2018-07-10T07:09:40.825Z,376.88
2018-07-10T07:10:39.066Z,376.88
2018-07-10T07:11:38.982Z,371.25
2018-07-10T07:12:38.921Z,376.88
2018-07-10T07:13:40.815Z,376.88
2018-07-10T07:14:38.917Z,382.50
2018-07-10T07:15:38.929Z,382.50
2018-07-10T07:16:38.854Z,376.88
2018-07-10T07:17:38.800Z,382.50
2018-07-10T07:19:38.817Z,388.13
2018-07-10T07:20:38.737Z,388.13
2018-07-10T07:21:38.742Z,393.75
2018-07-10T07:23:42.371Z,393.75
2018-07-10T07:24:38.687Z,399.38
2018-07-10T07:25:38.622Z,410.63
2018-07-10T07:26:38.618Z,405.00
2018-07-10T07:27:38.570Z,416.25
2018-07-10T07:28:38.569Z,421.88
2018-07-10T07:29:38.518Z,427.50
2018-07-10T07:30:38.536Z,433.13
2018-07-10T07:32:40.354Z,410.63
2018-07-10T07:33:38.564Z,388.13
2018-07-10T07:34:38.458Z,303.75
2018-07-10T07:35:38.552Z,309.38
2018-07-10T07:36:38.391Z,376.88
2018-07-10T07:37:38.371Z,399.38
2018-07-10T07:38:38.956Z,410.63
2018-07-10T07:39:38.345Z,376.88
2018-07-10T07:41:38.399Z,365.63
2018-07-10T07:42:38.368Z,528.75
2018-07-10T07:43:38.361Z,450.00
2018-07-10T07:44:39.866Z,376.88
2018-07-10T07:45:38.265Z,354.38
2018-07-10T07:46:38.228Z,343.13
2018-07-10T07:47:39.837Z,337.50
2018-07-10T07:48:39.889Z,433.13
2018-07-10T07:49:38.146Z,309.38
2018-07-10T07:50:38.129Z,343.13
2018-07-10T07:51:38.166Z,337.50
2018-07-10T07:52:38.276Z,315.00
2018-07-10T07:53:39.906Z,320.63
2018-07-10T07:54:38.073Z,331.88
2018-07-10T07:55:38.098Z,348.75
2018-07-10T07:56:40.041Z,444.38
2018-07-10T07:57:38.003Z,421.88
2018-07-10T07:58:37.956Z,360.00
2018-07-10T07:59:39.899Z,371.25
2018-07-10T08:00:41.399Z,371.25
2018-07-10T08:01:37.963Z,354.38
2018-07-10T08:02:37.896Z,348.75
2018-07-10T08:03:37.941Z,348.75
2018-07-10T08:04:37.913Z,348.75
2018-07-10T08:05:37.822Z,360.00
2018-07-10T08:06:38.144Z,371.25
2018-07-10T08:07:37.669Z,382.50
2018-07-10T08:08:37.642Z,376.88
2018-07-10T08:09:37.682Z,376.88
2018-07-10T08:10:37.602Z,382.50
2018-07-10T08:11:37.585Z,511.88
2018-07-10T08:12:37.557Z,624.38
2018-07-10T08:13:37.539Z,545.63
2018-07-10T08:14:37.514Z,427.50
2018-07-10T08:15:37.496Z,438.75
2018-07-10T08:16:37.475Z,388.13
2018-07-10T08:17:37.452Z,376.88
2018-07-10T08:18:37.444Z,388.13
2018-07-10T08:19:37.414Z,399.38
2018-07-10T08:20:37.396Z,421.88
2018-07-10T08:21:37.363Z,528.75
2018-07-10T08:22:37.353Z,528.75
2018-07-10T08:23:37.328Z,410.63
2018-07-10T08:24:37.438Z,399.38
2018-07-10T08:25:37.285Z,388.13
2018-07-10T08:26:37.269Z,376.88
2018-07-10T08:27:37.244Z,399.38
2018-07-10T08:28:37.225Z,382.50
2018-07-10T08:29:37.206Z,388.13
2018-07-10T08:30:37.182Z,388.13
2018-07-10T08:31:37.169Z,399.38
2018-07-10T08:32:37.141Z,421.88
2018-07-10T08:33:37.213Z,483.75
2018-07-10T08:34:37.098Z,523.13
2018-07-10T08:35:37.081Z,500.63
2018-07-10T08:36:37.060Z,472.50
2018-07-10T08:37:37.044Z,444.38
2018-07-10T08:38:37.016Z,444.38
2018-07-10T08:39:36.999Z,444.38
2018-07-10T08:40:36.980Z,444.38
2018-07-10T08:41:36.957Z,450.00
2018-07-10T08:42:36.934Z,461.25
2018-07-10T08:43:36.917Z,472.50
2018-07-10T08:44:36.895Z,483.75
2018-07-10T08:45:36.870Z,534.38
2018-07-10T08:46:36.855Z,523.13
2018-07-10T08:47:36.878Z,472.50
2018-07-10T08:48:36.829Z,461.25
2018-07-10T08:49:36.799Z,466.88
2018-07-10T08:50:36.834Z,703.13
2018-07-10T08:51:36.745Z,427.50
2018-07-10T08:52:36.732Z,405.00
2018-07-10T08:53:36.715Z,388.13
2018-07-10T08:54:36.827Z,376.88
2018-07-10T08:55:38.473Z,371.25
2018-07-10T08:56:37.056Z,371.25
2018-07-10T08:57:38.438Z,371.25
2018-07-10T08:58:36.698Z,371.25
2018-07-10T08:59:38.561Z,371.25
2018-07-10T09:00:38.719Z,371.25
2018-07-10T09:01:36.554Z,376.88
2018-07-10T09:02:36.535Z,382.50
2018-07-10T09:03:38.472Z,382.50
2018-07-10T09:04:38.381Z,376.88
2018-07-10T09:05:36.501Z,371.25
2018-07-10T09:06:36.450Z,371.25
2018-07-10T09:07:36.428Z,365.63
2018-07-10T09:08:38.334Z,360.00
2018-07-10T09:09:36.389Z,348.75
2018-07-10T09:10:36.368Z,348.75
2018-07-10T09:11:36.374Z,354.38
2018-07-10T09:12:36.328Z,354.38
2018-07-10T09:13:36.307Z,365.63
2018-07-10T09:14:36.295Z,376.88
2018-07-10T09:15:36.265Z,376.88
2018-07-10T09:16:36.243Z,393.75
2018-07-10T09:17:36.224Z,399.38
2018-07-10T09:18:36.204Z,450.00
2018-07-10T09:19:36.190Z,540.00
2018-07-10T09:20:36.164Z,455.63
2018-07-10T09:21:36.135Z,511.88
2018-07-10T09:22:36.119Z,506.25
2018-07-10T09:23:36.102Z,483.75
2018-07-10T09:24:36.081Z,495.00
2018-07-10T09:25:36.070Z,585.00
2018-07-10T09:26:36.041Z,579.38
2018-07-10T09:27:37.844Z,613.13
2018-07-10T09:28:35.998Z,500.63
2018-07-10T09:29:35.979Z,495.00
2018-07-10T09:30:35.962Z,495.00
2018-07-10T09:31:35.941Z,511.88
2018-07-10T09:32:35.920Z,579.38
2018-07-10T09:33:36.045Z,517.50
2018-07-10T09:34:35.943Z,472.50
2018-07-10T09:35:35.917Z,466.88
2018-07-10T09:36:35.867Z,506.25
2018-07-10T09:38:35.812Z,405.00
2018-07-10T09:39:35.787Z,405.00
2018-07-10T09:40:35.766Z,405.00
2018-07-10T09:41:35.740Z,399.38
2018-07-10T09:42:35.722Z,388.13
2018-07-10T09:43:35.709Z,382.50
2018-07-10T09:44:35.693Z,371.25
2018-07-10T09:45:35.664Z,371.25
2018-07-10T09:46:37.339Z,371.25
2018-07-10T09:47:35.639Z,365.63
2018-07-10T09:48:35.607Z,360.00
2018-07-10T09:49:37.352Z,360.00
2018-07-10T09:50:35.576Z,360.00
2018-07-10T09:51:35.548Z,371.25
2018-07-10T09:52:35.539Z,365.63
2018-07-10T09:53:35.518Z,365.63
2018-07-10T09:54:35.550Z,354.38
2018-07-10T09:55:35.502Z,331.88
2018-07-10T09:56:35.455Z,315.00
2018-07-10T09:57:35.442Z,298.13
2018-07-10T09:58:35.447Z,286.88
2018-07-10T09:59:35.403Z,281.25
2018-07-10T10:00:37.374Z,275.63
2018-07-10T10:01:37.379Z,275.63
2018-07-10T10:02:35.352Z,264.38
2018-07-10T10:03:36.880Z,258.75
2018-07-10T10:04:35.301Z,258.75
2018-07-10T10:05:35.270Z,258.75
2018-07-10T10:06:35.257Z,264.38
2018-07-10T10:07:35.252Z,264.38
2018-07-10T10:08:35.215Z,270.00
2018-07-10T10:09:35.196Z,270.00
2018-07-10T10:10:35.177Z,275.63
2018-07-10T10:11:36.849Z,286.88
2018-07-10T10:12:35.145Z,286.88
2018-07-10T10:13:35.123Z,275.63
2018-07-10T10:14:35.096Z,264.38
2018-07-10T10:15:35.074Z,275.63
2018-07-10T10:16:35.067Z,275.63
2018-07-10T10:17:35.031Z,286.88
2018-07-10T10:18:35.019Z,286.88
2018-07-10T10:19:34.985Z,286.88
2018-07-10T10:20:34.974Z,286.88
2018-07-10T10:21:34.952Z,286.88
2018-07-10T10:22:34.939Z,286.88
2018-07-10T10:23:34.911Z,292.50
2018-07-10T10:24:34.894Z,292.50
2018-07-10T10:25:34.872Z,303.75
2018-07-10T10:26:34.850Z,309.38
2018-07-10T10:27:34.839Z,320.63
2018-07-10T10:28:34.811Z,337.50
2018-07-10T10:29:34.789Z,348.75
2018-07-10T10:30:34.765Z,360.00
2018-07-10T10:31:34.765Z,371.25
2018-07-10T10:32:34.725Z,371.25
2018-07-10T10:33:34.715Z,376.88
2018-07-10T10:34:34.700Z,382.50
2018-07-10T10:35:34.694Z,393.75
2018-07-10T10:36:34.648Z,410.63
2018-07-10T10:37:34.626Z,427.50
2018-07-10T10:38:34.616Z,444.38
2018-07-10T10:39:34.587Z,461.25
2018-07-10T10:40:34.568Z,483.75
2018-07-10T10:41:34.647Z,517.50
2018-07-10T10:42:34.546Z,545.63
2018-07-10T10:43:34.505Z,500.63
2018-07-10T10:44:34.488Z,478.13
2018-07-10T10:45:34.458Z,472.50
2018-07-10T10:46:34.446Z,455.63
2018-07-10T10:47:34.426Z,461.25
2018-07-10T10:48:34.426Z,455.63
2018-07-10T10:49:34.390Z,461.25
2018-07-10T10:50:34.365Z,759.38
2018-07-10T10:51:34.349Z,646.88
2018-07-10T10:52:34.380Z,466.88
2018-07-10T10:53:34.316Z,556.88
2018-07-10T10:54:34.291Z,433.13
2018-07-10T10:55:34.280Z,427.50
2018-07-10T10:56:35.868Z,427.50
2018-07-10T10:57:34.235Z,427.50
2018-07-10T10:58:34.223Z,416.25
2018-07-10T10:59:34.196Z,405.00
2018-07-10T11:00:34.177Z,405.00
2018-07-10T11:01:34.164Z,399.38
2018-07-10T11:02:34.188Z,399.38
2018-07-10T11:03:34.119Z,393.75
2018-07-10T11:04:34.099Z,388.13
2018-07-10T11:05:34.085Z,388.13
2018-07-10T11:06:34.056Z,388.13
2018-07-10T11:07:34.038Z,388.13
2018-07-10T11:08:34.022Z,393.75
2018-07-10T11:09:34.004Z,405.00
2018-07-10T11:10:33.988Z,410.63
2018-07-10T11:11:33.968Z,421.88
2018-07-10T11:12:33.942Z,433.13
2018-07-10T11:13:33.938Z,455.63
2018-07-10T11:14:33.907Z,489.38
2018-07-10T11:15:33.932Z,511.88
2018-07-10T11:16:33.868Z,517.50
2018-07-10T11:17:33.848Z,686.25
2018-07-10T11:18:33.830Z,500.63
2018-07-10T11:19:33.815Z,483.75
2018-07-10T11:20:33.798Z,489.38
2018-07-10T11:21:33.774Z,489.38
2018-07-10T11:22:33.755Z,556.88
2018-07-10T11:23:33.742Z,725.63
2018-07-10T11:24:33.717Z,601.88
2018-07-10T11:25:33.701Z,613.13
2018-07-10T11:26:33.685Z,450.00
2018-07-10T11:27:33.669Z,444.38
2018-07-10T11:28:33.643Z,438.75
2018-07-10T11:29:33.625Z,427.50
2018-07-10T11:30:33.717Z,421.88
2018-07-10T11:31:33.597Z,421.88
2018-07-10T11:32:33.585Z,416.25
2018-07-10T11:33:33.565Z,405.00
2018-07-10T11:34:33.538Z,388.13
2018-07-10T11:35:33.519Z,371.25
2018-07-10T11:36:33.495Z,360.00
2018-07-10T11:37:33.499Z,348.75
2018-07-10T11:38:33.464Z,337.50
2018-07-10T11:39:33.450Z,320.63
2018-07-10T11:40:33.432Z,303.75
2018-07-10T11:41:33.418Z,298.13
2018-07-10T11:42:33.396Z,292.50
2018-07-10T11:43:33.375Z,286.88
2018-07-10T11:44:33.362Z,281.25
2018-07-10T11:45:33.387Z,270.00
2018-07-10T11:46:33.320Z,253.13
2018-07-10T11:47:33.302Z,247.50
2018-07-10T11:48:33.285Z,247.50
2018-07-10T11:49:33.273Z,253.13
2018-07-10T11:50:33.242Z,270.00
2018-07-10T11:51:33.305Z,303.75
2018-07-10T11:52:34.874Z,315.00
2018-07-10T11:53:33.208Z,326.25
2018-07-10T11:54:33.174Z,331.88
2018-07-10T11:55:33.155Z,331.88
2018-07-10T11:56:33.135Z,331.88
2018-07-10T11:57:33.124Z,343.13
2018-07-10T11:58:33.098Z,371.25
2018-07-10T11:59:33.079Z,382.50
2018-07-10T12:00:33.061Z,399.38
2018-07-10T12:01:33.053Z,427.50
2018-07-10T12:02:33.017Z,444.38
2018-07-10T12:03:33.006Z,461.25
2018-07-10T12:04:32.995Z,478.13
2018-07-10T12:05:32.959Z,478.13
2018-07-10T12:06:32.943Z,472.50
2018-07-10T12:07:32.935Z,466.88
2018-07-10T12:08:32.904Z,472.50
2018-07-10T12:09:32.884Z,466.88
2018-07-10T12:10:32.868Z,455.63
2018-07-10T12:11:32.859Z,483.75
2018-07-10T12:12:32.892Z,669.38
2018-07-10T12:13:32.813Z,534.38
2018-07-10T12:14:32.794Z,517.50
2018-07-10T12:15:32.776Z,506.25
2018-07-10T12:16:32.761Z,483.75
2018-07-10T12:17:32.735Z,466.88
2018-07-10T12:18:32.717Z,444.38
2018-07-10T12:19:32.694Z,421.88
2018-07-10T12:20:32.680Z,410.63
2018-07-10T12:21:32.680Z,461.25
2018-07-10T12:22:32.647Z,450.00
2018-07-10T12:23:34.376Z,421.88
2018-07-10T12:24:32.603Z,461.25
2018-07-10T12:25:32.595Z,540.00
2018-07-10T12:26:32.572Z,551.25
2018-07-10T12:27:32.558Z,590.63
2018-07-10T12:28:32.538Z,601.88
2018-07-10T12:29:32.516Z,601.88
2018-07-10T12:30:34.409Z,607.50
2018-07-10T12:31:32.491Z,613.13
2018-07-10T12:32:32.462Z,438.75
2018-07-10T12:33:32.442Z,421.88
2018-07-10T12:34:34.401Z,556.88
2018-07-10T12:35:32.413Z,410.63
2018-07-10T12:36:32.389Z,376.88
2018-07-10T12:37:32.373Z,365.63
2018-07-10T12:38:32.353Z,354.38
2018-07-10T12:39:32.348Z,348.75
2018-07-10T12:40:32.326Z,354.38
2018-07-10T12:41:32.360Z,376.88
2018-07-10T12:42:32.284Z,444.38
2018-07-10T12:43:32.273Z,421.88
2018-07-10T12:44:32.244Z,540.00
2018-07-10T12:45:32.239Z,663.75
2018-07-10T12:46:32.210Z,691.88
2018-07-10T12:47:32.196Z,714.38
2018-07-10T12:48:32.177Z,691.88
2018-07-10T12:49:32.226Z,708.75
2018-07-10T12:50:32.137Z,725.63
2018-07-10T12:51:32.123Z,691.88
2018-07-10T12:52:32.107Z,511.88
2018-07-10T12:53:32.100Z,450.00
2018-07-10T12:54:32.070Z,596.25
2018-07-10T12:55:32.053Z,405.00
2018-07-10T12:57:32.023Z,376.88